BAW613 LIRP-EGLL
Flight info
| Callsign | BAW613 |
|---|---|
| Flight time | N/A |
| Altitude | 36000 |
| Route | SPEZI DCT TESTO DCT ASTIG DCT AOSTA DCT ORSUD DCT MOLUS DCT IBODI DCT GOTED DCT TRO DCT CLM DCT KOPOR DCT ABNUR DCT DIMAL DCT ALESO ALESO1H |
| Aircraft | A319/M-SDE2E3FGHIJ1RWXY/S |
Departure
| Time | 2026-04-23 21:18 |
|---|---|
| Airport | Pisa International Airport (LIRP) |
Arrival
| Time | N/A |
|---|---|
| Airport | London Heathrow Airport (EGLL) |
| Time | Latitude | Longitude | Altitude | Speed | Heading |
|---|---|---|---|---|---|
| 2026-04-23 21:04 | 43.69765 | 10.39976 | 15 ft | 0 kts | 8° |
| 2026-04-23 21:11 | 43.69763 | 10.39975 | 15 ft | 1 kts | 8° |
| 2026-04-23 21:11 | 43.69746 | 10.39971 | 15 ft | 3 kts | 11° |
| 2026-04-23 21:12 | 43.69726 | 10.39965 | 15 ft | 3 kts | 18° |
| 2026-04-23 21:12 | 43.69707 | 10.39955 | 16 ft | 3 kts | 34° |
| 2026-04-23 21:12 | 43.69694 | 10.39938 | 15 ft | 2 kts | 84° |
| 2026-04-23 21:12 | 43.69694 | 10.39930 | 15 ft | 0 kts | 99° |
| 2026-04-23 21:14 | 43.69693 | 10.39935 | 17 ft | 3 kts | 99° |
| 2026-04-23 21:14 | 43.69686 | 10.39998 | 15 ft | 9 kts | 98° |
| 2026-04-23 21:15 | 43.69636 | 10.40059 | 15 ft | 13 kts | 173° |
| 2026-04-23 21:15 | 43.69533 | 10.40077 | 16 ft | 17 kts | 173° |
| 2026-04-23 21:15 | 43.69401 | 10.40105 | 24 ft | 19 kts | 162° |
| 2026-04-23 21:15 | 43.69323 | 10.40214 | 18 ft | 0 kts | 125° |
| 2026-04-23 21:16 | 43.69323 | 10.40216 | 18 ft | 0 kts | 125° |
| 2026-04-23 21:17 | 43.69322 | 10.40216 | 18 ft | 1 kts | 125° |
| 2026-04-23 21:17 | 43.69297 | 10.40265 | 18 ft | 10 kts | 125° |
| 2026-04-23 21:17 | 43.69238 | 10.40313 | 20 ft | 11 kts | 189° |
| 2026-04-23 21:17 | 43.69156 | 10.40228 | 21 ft | 30 kts | 215° |
| 2026-04-23 21:18 | 43.68813 | 10.39881 | 18 ft | 92 kts | 217° |
| 2026-04-23 21:18 | 43.68145 | 10.39189 | 17 ft | 147 kts | 217° |
| 2026-04-23 21:18 | 43.67272 | 10.38249 | 413 ft | 160 kts | 219° |
| 2026-04-23 21:18 | 43.66389 | 10.37319 | 1084 ft | 160 kts | 217° |
| 2026-04-23 21:19 | 43.65464 | 10.36374 | 1561 ft | 175 kts | 217° |
| 2026-04-23 21:19 | 43.64421 | 10.35310 | 1882 ft | 199 kts | 217° |
| 2026-04-23 21:19 | 43.63297 | 10.34047 | 2411 ft | 215 kts | 230° |
| 2026-04-23 21:19 | 43.62804 | 10.32094 | 3192 ft | 220 kts | 275° |
| 2026-04-23 21:20 | 43.63313 | 10.30123 | 4054 ft | 221 kts | 302° |
| 2026-04-23 21:20 | 43.64213 | 10.28398 | 4946 ft | 223 kts | 310° |
| 2026-04-23 21:20 | 43.65221 | 10.26692 | 5714 ft | 234 kts | 308° |
| 2026-04-23 21:20 | 43.65884 | 10.24508 | 6135 ft | 262 kts | 287° |
| 2026-04-23 21:21 | 43.66357 | 10.21988 | 6803 ft | 277 kts | 285° |
| 2026-04-23 21:21 | 43.66824 | 10.19378 | 7682 ft | 283 kts | 285° |
| 2026-04-23 21:21 | 43.67295 | 10.16716 | 8551 ft | 288 kts | 285° |
| 2026-04-23 21:21 | 43.67780 | 10.13999 | 9400 ft | 294 kts | 286° |
| 2026-04-23 21:22 | 43.68279 | 10.11243 | 10224 ft | 299 kts | 287° |
| 2026-04-23 21:22 | 43.68808 | 10.08357 | 10624 ft | 321 kts | 287° |
| 2026-04-23 21:22 | 43.69378 | 10.05258 | 10920 ft | 344 kts | 287° |
| 2026-04-23 21:22 | 43.69974 | 10.02006 | 11513 ft | 353 kts | 287° |
| 2026-04-23 21:23 | 43.70579 | 9.98685 | 12215 ft | 359 kts | 287° |
| 2026-04-23 21:23 | 43.71188 | 9.95313 | 12930 ft | 364 kts | 287° |
| 2026-04-23 21:23 | 43.71803 | 9.91899 | 13668 ft | 367 kts | 287° |
| 2026-04-23 21:23 | 43.72420 | 9.88462 | 14388 ft | 370 kts | 287° |
| 2026-04-23 21:24 | 43.73044 | 9.84991 | 15091 ft | 373 kts | 287° |
| 2026-04-23 21:24 | 43.73671 | 9.81497 | 15782 ft | 376 kts | 286° |
| 2026-04-23 21:24 | 43.74305 | 9.77975 | 16449 ft | 379 kts | 286° |
| 2026-04-23 21:24 | 43.74944 | 9.74422 | 17116 ft | 382 kts | 286° |
| 2026-04-23 21:25 | 43.75586 | 9.70850 | 17758 ft | 384 kts | 286° |
| 2026-04-23 21:25 | 43.76243 | 9.67200 | 18406 ft | 387 kts | 286° |
| 2026-04-23 21:25 | 43.76994 | 9.63624 | 19029 ft | 388 kts | 293° |
| 2026-04-23 21:25 | 43.78186 | 9.60284 | 19654 ft | 388 kts | 304° |
| 2026-04-23 21:26 | 43.79808 | 9.57321 | 20281 ft | 387 kts | 315° |
| 2026-04-23 21:26 | 43.81793 | 9.54822 | 20890 ft | 386 kts | 324° |
| 2026-04-23 21:26 | 43.83896 | 9.52491 | 21485 ft | 388 kts | 323° |
| 2026-04-23 21:26 | 43.86007 | 9.50146 | 22062 ft | 390 kts | 323° |
| 2026-04-23 21:27 | 43.88129 | 9.47784 | 22608 ft | 392 kts | 323° |
| 2026-04-23 21:27 | 43.90262 | 9.45402 | 23139 ft | 394 kts | 323° |
| 2026-04-23 21:27 | 43.92406 | 9.43004 | 23652 ft | 397 kts | 323° |
| 2026-04-23 21:27 | 43.94559 | 9.40593 | 24147 ft | 399 kts | 323° |
| 2026-04-23 21:28 | 43.96719 | 9.38172 | 24624 ft | 401 kts | 323° |
| 2026-04-23 21:28 | 43.98895 | 9.35731 | 25069 ft | 403 kts | 323° |
| 2026-04-23 21:28 | 44.01081 | 9.33276 | 25501 ft | 406 kts | 323° |
| 2026-04-23 21:28 | 44.03286 | 9.30795 | 25913 ft | 409 kts | 323° |
| 2026-04-23 21:29 | 44.05510 | 9.28293 | 26307 ft | 412 kts | 323° |
| 2026-04-23 21:29 | 44.07744 | 9.25781 | 26701 ft | 415 kts | 323° |
| 2026-04-23 21:29 | 44.10000 | 9.23243 | 27098 ft | 418 kts | 323° |
| 2026-04-23 21:29 | 44.12267 | 9.20690 | 27491 ft | 421 kts | 323° |
| 2026-04-23 21:30 | 44.14550 | 9.18113 | 27867 ft | 424 kts | 323° |
| 2026-04-23 21:30 | 44.16850 | 9.15514 | 28238 ft | 427 kts | 323° |
| 2026-04-23 21:30 | 44.19164 | 9.12900 | 28599 ft | 430 kts | 323° |
| 2026-04-23 21:30 | 44.21492 | 9.10269 | 28965 ft | 432 kts | 323° |
| 2026-04-23 21:31 | 44.23862 | 9.07586 | 29294 ft | 435 kts | 323° |
| 2026-04-23 21:31 | 44.26221 | 9.04911 | 29617 ft | 438 kts | 323° |
| 2026-04-23 21:31 | 44.28591 | 9.02216 | 29932 ft | 440 kts | 323° |
| 2026-04-23 21:31 | 44.30970 | 8.99509 | 30244 ft | 443 kts | 323° |
| 2026-04-23 21:32 | 44.33367 | 8.96780 | 30553 ft | 446 kts | 323° |
| 2026-04-23 21:32 | 44.35769 | 8.94040 | 30848 ft | 448 kts | 323° |
| 2026-04-23 21:32 | 44.38193 | 8.91275 | 31148 ft | 450 kts | 323° |
| 2026-04-23 21:32 | 44.40625 | 8.88496 | 31445 ft | 452 kts | 324° |
| 2026-04-23 21:33 | 44.43061 | 8.85713 | 31784 ft | 452 kts | 324° |
| 2026-04-23 21:33 | 44.45530 | 8.82892 | 32186 ft | 452 kts | 324° |
| 2026-04-23 21:33 | 44.47962 | 8.80110 | 32574 ft | 451 kts | 324° |
| 2026-04-23 21:33 | 44.50388 | 8.77328 | 32963 ft | 450 kts | 323° |
| 2026-04-23 21:34 | 44.52806 | 8.74545 | 33352 ft | 450 kts | 324° |
| 2026-04-23 21:34 | 44.55220 | 8.71762 | 33742 ft | 449 kts | 323° |
| 2026-04-23 21:34 | 44.57632 | 8.68980 | 34126 ft | 448 kts | 324° |
| 2026-04-23 21:34 | 44.60041 | 8.66207 | 34497 ft | 448 kts | 324° |
| 2026-04-23 21:35 | 44.62503 | 8.63443 | 34885 ft | 447 kts | 325° |
| 2026-04-23 21:35 | 44.64123 | 8.61672 | 35129 ft | 446 kts | 325° |
| 2026-04-23 21:35 | 44.66591 | 8.59020 | 35477 ft | 446 kts | 326° |
| 2026-04-23 21:35 | 44.69062 | 8.56390 | 35818 ft | 445 kts | 326° |
| 2026-04-23 21:36 | 44.74022 | 8.51079 | 36160 ft | 444 kts | 326° |
| 2026-04-23 21:36 | 44.76471 | 8.48430 | 36165 ft | 443 kts | 325° |
| 2026-04-23 21:37 | 44.81347 | 8.43119 | 36166 ft | 443 kts | 325° |
| 2026-04-23 21:37 | 44.86212 | 8.37791 | 36165 ft | 444 kts | 325° |
| 2026-04-23 21:38 | 44.91089 | 8.32447 | 36163 ft | 444 kts | 325° |
| 2026-04-23 21:38 | 44.95999 | 8.27064 | 36163 ft | 444 kts | 326° |
| 2026-04-23 21:39 | 45.00937 | 8.21704 | 36161 ft | 444 kts | 326° |
| 2026-04-23 21:39 | 45.05837 | 8.16379 | 36160 ft | 445 kts | 326° |
| 2026-04-23 21:40 | 45.10737 | 8.11040 | 36160 ft | 445 kts | 326° |
| 2026-04-23 21:40 | 45.15570 | 8.05765 | 36155 ft | 445 kts | 326° |
| 2026-04-23 21:41 | 45.20471 | 8.00396 | 36153 ft | 446 kts | 326° |
| 2026-04-23 21:41 | 45.25378 | 7.95008 | 36148 ft | 446 kts | 325° |
| 2026-04-23 21:42 | 45.30289 | 7.89600 | 36145 ft | 447 kts | 325° |
| 2026-04-23 21:42 | 45.35211 | 7.84175 | 36146 ft | 448 kts | 325° |
| 2026-04-23 21:43 | 45.40135 | 7.78731 | 36146 ft | 449 kts | 325° |
| 2026-04-23 21:43 | 45.45097 | 7.73230 | 36149 ft | 449 kts | 325° |
| 2026-04-23 21:44 | 45.50027 | 7.67750 | 36149 ft | 450 kts | 325° |
| 2026-04-23 21:44 | 45.54957 | 7.62260 | 36151 ft | 449 kts | 325° |
| 2026-04-23 21:45 | 45.59879 | 7.56771 | 36153 ft | 449 kts | 325° |
| 2026-04-23 21:45 | 45.64840 | 7.51233 | 36151 ft | 450 kts | 325° |
| 2026-04-23 21:46 | 45.69766 | 7.45713 | 36149 ft | 450 kts | 325° |
| 2026-04-23 21:46 | 45.74689 | 7.40174 | 36150 ft | 450 kts | 325° |
| 2026-04-23 21:47 | 45.79614 | 7.34628 | 36149 ft | 450 kts | 325° |
| 2026-04-23 21:47 | 45.84647 | 7.29309 | 36152 ft | 450 kts | 328° |
| 2026-04-23 21:48 | 45.89792 | 7.24205 | 36157 ft | 449 kts | 328° |
| 2026-04-23 21:48 | 45.94964 | 7.19045 | 36165 ft | 450 kts | 328° |
| 2026-04-23 21:49 | 45.98295 | 7.15654 | 36173 ft | 450 kts | 327° |
| 2026-04-23 21:49 | 45.99950 | 7.13950 | 36179 ft | 450 kts | 327° |
| 2026-04-23 21:50 | 46.10533 | 7.03110 | 36199 ft | 452 kts | 327° |
| 2026-04-23 21:50 | 46.15642 | 6.97814 | 36201 ft | 453 kts | 327° |
| 2026-04-23 21:51 | 46.20772 | 6.92496 | 36203 ft | 454 kts | 327° |
| 2026-04-23 21:51 | 46.25078 | 6.88046 | 36207 ft | 455 kts | 327° |
| 2026-04-23 21:52 | 46.30241 | 6.82689 | 36218 ft | 455 kts | 327° |
| 2026-04-23 21:52 | 46.35405 | 6.77325 | 36226 ft | 456 kts | 327° |
| 2026-04-23 21:53 | 46.40561 | 6.71956 | 36229 ft | 456 kts | 327° |
| 2026-04-23 21:53 | 46.45529 | 6.66247 | 36231 ft | 460 kts | 316° |
| 2026-04-23 21:54 | 46.49978 | 6.59501 | 36234 ft | 461 kts | 316° |
| 2026-04-23 21:54 | 46.54452 | 6.52736 | 36235 ft | 461 kts | 316° |
| 2026-04-23 21:55 | 46.58891 | 6.46010 | 36235 ft | 461 kts | 316° |
| 2026-04-23 21:55 | 46.63333 | 6.39262 | 36236 ft | 461 kts | 316° |
| 2026-04-23 21:56 | 46.67769 | 6.32498 | 36235 ft | 462 kts | 316° |
| 2026-04-23 21:56 | 46.72229 | 6.25673 | 36237 ft | 462 kts | 316° |
| 2026-04-23 21:57 | 46.76656 | 6.18888 | 36235 ft | 462 kts | 315° |
| 2026-04-23 21:57 | 46.81081 | 6.12088 | 36236 ft | 462 kts | 315° |
| 2026-04-23 21:58 | 46.85533 | 6.05224 | 36235 ft | 462 kts | 315° |
| 2026-04-23 21:58 | 46.89958 | 5.98386 | 36234 ft | 463 kts | 315° |
| 2026-04-23 21:59 | 46.94490 | 5.91606 | 36233 ft | 462 kts | 321° |
| 2026-04-23 21:59 | 46.99858 | 5.86544 | 36225 ft | 459 kts | 335° |
| 2026-04-23 22:00 | 47.08393 | 5.80015 | 36220 ft | 459 kts | 335° |
| 2026-04-23 22:00 | 47.14049 | 5.75657 | 36218 ft | 459 kts | 335° |
| 2026-04-23 22:01 | 47.19705 | 5.71278 | 36218 ft | 460 kts | 335° |
| 2026-04-23 22:01 | 47.25366 | 5.66885 | 36219 ft | 460 kts | 334° |
| 2026-04-23 22:02 | 47.31034 | 5.62476 | 36219 ft | 461 kts | 334° |
| 2026-04-23 22:02 | 47.36741 | 5.58034 | 36215 ft | 461 kts | 335° |
| 2026-04-23 22:03 | 47.42417 | 5.53614 | 36216 ft | 461 kts | 334° |
| 2026-04-23 22:03 | 47.48083 | 5.49175 | 36217 ft | 461 kts | 334° |
| 2026-04-23 22:04 | 47.53267 | 5.43571 | 36221 ft | 466 kts | 316° |
| 2026-04-23 22:04 | 47.57312 | 5.36044 | 36224 ft | 468 kts | 307° |
| 2026-04-23 22:05 | 47.61203 | 5.28232 | 36225 ft | 468 kts | 308° |
| 2026-04-23 22:05 | 47.65071 | 5.20453 | 36233 ft | 469 kts | 307° |
| 2026-04-23 22:06 | 47.68924 | 5.12654 | 36236 ft | 468 kts | 307° |
| 2026-04-23 22:06 | 47.72766 | 5.04851 | 36239 ft | 468 kts | 307° |
| 2026-04-23 22:07 | 47.76631 | 4.96984 | 36239 ft | 468 kts | 307° |
| 2026-04-23 22:07 | 47.80470 | 4.89157 | 36235 ft | 468 kts | 307° |
| 2026-04-23 22:08 | 47.84323 | 4.81281 | 36235 ft | 468 kts | 307° |
| 2026-04-23 22:08 | 47.88141 | 4.73438 | 36240 ft | 468 kts | 306° |
| 2026-04-23 22:09 | 47.91960 | 4.65566 | 36251 ft | 468 kts | 306° |
| 2026-04-23 22:09 | 47.95770 | 4.57702 | 36256 ft | 468 kts | 306° |
| 2026-04-23 22:10 | 47.99602 | 4.49770 | 36258 ft | 468 kts | 306° |
| 2026-04-23 22:10 | 48.03405 | 4.41890 | 36260 ft | 468 kts | 306° |
| 2026-04-23 22:11 | 48.06587 | 4.35277 | 36262 ft | 468 kts | 306° |
| 2026-04-23 22:11 | 48.10398 | 4.27310 | 36263 ft | 467 kts | 306° |
| 2026-04-23 22:12 | 48.14174 | 4.19393 | 36263 ft | 467 kts | 305° |
| 2026-04-23 22:12 | 48.17942 | 4.11471 | 36264 ft | 467 kts | 305° |
| 2026-04-23 22:13 | 48.21707 | 4.03545 | 36265 ft | 467 kts | 305° |
| 2026-04-23 22:13 | 48.25559 | 3.95701 | 36267 ft | 467 kts | 311° |
| 2026-04-23 22:14 | 48.30015 | 3.88617 | 36270 ft | 467 kts | 314° |
| 2026-04-23 22:14 | 48.34527 | 3.81508 | 36269 ft | 467 kts | 314° |
| 2026-04-23 22:15 | 48.39009 | 3.74428 | 36269 ft | 468 kts | 314° |
| 2026-04-23 22:15 | 48.43491 | 3.67314 | 36271 ft | 468 kts | 314° |
| 2026-04-23 22:16 | 48.47965 | 3.60191 | 36272 ft | 468 kts | 313° |
| 2026-04-23 22:16 | 48.52475 | 3.53009 | 36274 ft | 468 kts | 314° |
| 2026-04-23 22:17 | 48.56948 | 3.45853 | 36273 ft | 468 kts | 313° |
| 2026-04-23 22:17 | 48.61406 | 3.38690 | 36270 ft | 468 kts | 313° |
| 2026-04-23 22:18 | 48.65871 | 3.31517 | 36269 ft | 469 kts | 313° |
| 2026-04-23 22:18 | 48.70335 | 3.24315 | 36271 ft | 469 kts | 313° |
| 2026-04-23 22:19 | 48.74818 | 3.17065 | 36270 ft | 469 kts | 313° |
| 2026-04-23 22:19 | 48.79272 | 3.09831 | 36270 ft | 469 kts | 313° |
| 2026-04-23 22:20 | 48.83812 | 3.02719 | 36267 ft | 469 kts | 319° |
| 2026-04-23 22:20 | 48.89261 | 2.97224 | 36269 ft | 468 kts | 331° |
| 2026-04-23 22:21 | 48.94919 | 2.92299 | 36272 ft | 469 kts | 331° |
| 2026-04-23 22:21 | 49.00605 | 2.87301 | 36274 ft | 469 kts | 331° |
| 2026-04-23 22:22 | 49.06250 | 2.82336 | 36276 ft | 469 kts | 330° |
| 2026-04-23 22:22 | 49.11903 | 2.77352 | 36279 ft | 469 kts | 330° |
| 2026-04-23 22:23 | 49.17598 | 2.72324 | 36284 ft | 470 kts | 330° |
| 2026-04-23 22:23 | 49.23257 | 2.67311 | 36284 ft | 470 kts | 330° |
| 2026-04-23 22:24 | 49.28921 | 2.62271 | 36288 ft | 471 kts | 330° |
| 2026-04-23 22:24 | 49.34592 | 2.57224 | 36293 ft | 471 kts | 330° |
| 2026-04-23 22:25 | 49.40295 | 2.52141 | 36296 ft | 471 kts | 330° |
| 2026-04-23 22:25 | 49.45966 | 2.47065 | 36300 ft | 472 kts | 330° |
| 2026-04-23 22:26 | 49.51643 | 2.41963 | 36301 ft | 472 kts | 330° |
| 2026-04-23 22:26 | 49.57404 | 2.36974 | 36308 ft | 472 kts | 332° |
| 2026-04-23 22:27 | 49.63196 | 2.32164 | 36317 ft | 473 kts | 332° |
| 2026-04-23 22:27 | 49.68985 | 2.27318 | 36306 ft | 474 kts | 332° |
| 2026-04-23 22:28 | 49.74764 | 2.22398 | 36306 ft | 474 kts | 331° |
| 2026-04-23 22:28 | 49.80534 | 2.17456 | 36316 ft | 475 kts | 331° |
| 2026-04-23 22:29 | 49.86360 | 2.12454 | 36316 ft | 475 kts | 331° |
| 2026-04-23 22:29 | 49.92146 | 2.07488 | 36320 ft | 475 kts | 331° |
| 2026-04-23 22:30 | 49.97935 | 2.02516 | 36318 ft | 476 kts | 331° |
| 2026-04-23 22:30 | 50.03732 | 1.97521 | 36333 ft | 476 kts | 331° |
| 2026-04-23 22:31 | 50.09524 | 1.92503 | 36329 ft | 476 kts | 331° |
| 2026-04-23 22:31 | 50.15303 | 1.87446 | 36331 ft | 476 kts | 328° |
| 2026-04-23 22:32 | 50.20430 | 1.80871 | 36335 ft | 475 kts | 314° |
| 2026-04-23 22:32 | 50.25153 | 1.73642 | 36332 ft | 476 kts | 314° |
| 2026-04-23 22:33 | 50.29900 | 1.66415 | 36331 ft | 477 kts | 314° |
| 2026-04-23 22:33 | 50.34647 | 1.59163 | 36334 ft | 477 kts | 314° |
| 2026-04-23 22:34 | 50.38583 | 1.53120 | 36339 ft | 477 kts | 314° |
| 2026-04-23 22:34 | 50.43320 | 1.45829 | 36345 ft | 477 kts | 314° |
| 2026-04-23 22:35 | 50.48098 | 1.38512 | 36348 ft | 477 kts | 314° |
| 2026-04-23 22:35 | 50.52708 | 1.31028 | 36355 ft | 476 kts | 311° |
| 2026-04-23 22:36 | 50.57174 | 1.23344 | 36356 ft | 475 kts | 310° |
| 2026-04-23 22:36 | 50.61608 | 1.15653 | 36352 ft | 475 kts | 310° |
| 2026-04-23 22:37 | 50.66052 | 1.07946 | 36351 ft | 475 kts | 310° |
| 2026-04-23 22:37 | 50.70490 | 1.00243 | 36349 ft | 474 kts | 310° |
| 2026-04-23 22:38 | 50.74925 | 0.92540 | 36350 ft | 474 kts | 310° |
| 2026-04-23 22:38 | 50.79392 | 0.84774 | 36350 ft | 474 kts | 310° |
| 2026-04-23 22:39 | 50.83827 | 0.77054 | 36350 ft | 474 kts | 310° |
| 2026-04-23 22:39 | 50.88269 | 0.69319 | 36350 ft | 474 kts | 310° |
| 2026-04-23 22:40 | 50.92739 | 0.61519 | 36351 ft | 474 kts | 310° |
| 2026-04-23 22:41 | 50.99387 | 0.49907 | 36351 ft | 474 kts | 310° |
| 2026-04-23 22:41 | 51.03845 | 0.42105 | 36350 ft | 474 kts | 310° |
| 2026-04-23 22:42 | 51.04582 | 0.40814 | 36350 ft | 474 kts | 310° |
| 2026-04-23 22:42 | 51.08454 | 0.34057 | 36351 ft | 474 kts | 310° |
| 2026-04-23 22:43 | 51.12882 | 0.26291 | 36351 ft | 474 kts | 310° |
| 2026-04-23 22:43 | 51.17153 | 0.18794 | 36351 ft | 474 kts | 310° |
| 2026-04-23 22:44 | 51.21468 | 0.11213 | 36351 ft | 475 kts | 310° |
| 2026-04-23 22:44 | 51.25911 | 0.03400 | 36349 ft | 474 kts | 310° |
| 2026-04-23 22:45 | 51.30343 | -0.04396 | 36349 ft | 474 kts | 310° |
| 2026-04-23 22:45 | 51.34735 | -0.12180 | 36356 ft | 460 kts | 310° |
| 2026-04-23 22:46 | 51.38867 | -0.19817 | 36353 ft | 449 kts | 310° |
| 2026-04-23 22:46 | 51.40895 | -0.23619 | 36351 ft | 447 kts | 310° |